createdAt,value
2022-08-11T00:01:30.925Z,100.00
2022-08-11T00:04:22.350Z,100.00
2022-08-11T00:07:11.431Z,100.00
2022-08-11T00:10:00.413Z,100.00
2022-08-11T00:12:55.527Z,100.00
2022-08-11T00:15:45.518Z,100.00
2022-08-11T00:18:41.633Z,100.00
2022-08-11T00:22:02.875Z,100.00
2022-08-11T00:24:53.549Z,100.00
2022-08-11T00:27:42.700Z,100.00
2022-08-11T00:30:39.931Z,100.00
2022-08-11T00:33:41.202Z,100.00
2022-08-11T00:36:42.943Z,100.00
2022-08-11T00:39:36.579Z,100.00
2022-08-11T00:42:40.619Z,100.00
2022-08-11T00:45:33.547Z,100.00
2022-08-11T00:48:40.029Z,100.00
2022-08-11T00:51:56.762Z,100.00
2022-08-11T00:55:30.537Z,100.00
2022-08-11T00:58:56.427Z,100.00
2022-08-11T01:02:11.189Z,100.00
2022-08-11T01:05:28.441Z,100.00
2022-08-11T01:08:57.127Z,100.00
2022-08-11T01:12:21.553Z,100.00
2022-08-11T01:15:57.315Z,100.00
2022-08-11T01:19:21.267Z,100.00
2022-08-11T01:22:53.219Z,100.00
2022-08-11T01:26:20.788Z,100.00
2022-08-11T01:29:41.266Z,100.00
2022-08-11T01:33:14.963Z,100.00
2022-08-11T01:36:42.064Z,100.00
2022-08-11T01:40:11.053Z,100.00
2022-08-11T01:43:48.815Z,100.00
2022-08-11T01:46:45.003Z,100.00
2022-08-11T01:50:09.573Z,100.00
2022-08-11T01:53:04.994Z,100.00
2022-08-11T01:56:05.563Z,100.00
2022-08-11T01:59:04.092Z,100.00
2022-08-11T02:02:12.249Z,100.00
2022-08-11T02:05:20.378Z,100.00
2022-08-11T02:08:21.275Z,100.00
2022-08-11T02:11:35.787Z,100.00
2022-08-11T02:14:39.667Z,100.00
2022-08-11T02:17:46.265Z,100.00
2022-08-11T02:21:03.669Z,100.00
2022-08-11T02:24:04.056Z,100.00
2022-08-11T02:27:02.242Z,100.00
2022-08-11T02:30:06.743Z,100.00
2022-08-11T02:33:24.050Z,100.00
2022-08-11T02:36:21.140Z,100.00
2022-08-11T02:39:13.257Z,100.00
2022-08-11T02:42:33.455Z,100.00
2022-08-11T02:45:54.119Z,100.00
2022-08-11T02:49:14.499Z,100.00
2022-08-11T02:52:08.708Z,100.00
2022-08-11T02:55:10.717Z,100.00
2022-08-11T02:58:31.055Z,100.00
2022-08-11T03:01:39.213Z,100.00
2022-08-11T03:04:38.014Z,100.00
2022-08-11T03:07:32.997Z,100.00
2022-08-11T03:10:26.948Z,100.00
2022-08-11T03:13:39.542Z,100.00
2022-08-11T03:16:46.127Z,100.00
2022-08-11T03:19:46.717Z,100.00
2022-08-11T03:22:45.060Z,100.00
2022-08-11T03:25:39.591Z,100.00
2022-08-11T03:28:34.116Z,100.00
2022-08-11T03:31:27.279Z,100.00
2022-08-11T03:34:22.192Z,100.00
2022-08-11T03:37:46.066Z,100.00
2022-08-11T03:41:49.389Z,100.00
2022-08-11T03:44:37.925Z,100.00
2022-08-11T03:47:38.649Z,100.00
2022-08-11T03:50:45.698Z,100.00
2022-08-11T03:54:01.851Z,100.00
2022-08-11T03:57:35.450Z,100.00
2022-08-11T04:00:52.308Z,100.00
2022-08-11T04:04:08.590Z,100.00
2022-08-11T04:07:36.665Z,100.00
2022-08-11T04:10:53.408Z,100.00
2022-08-11T04:14:34.491Z,100.00
2022-08-11T04:17:58.710Z,100.00
2022-08-11T04:21:20.455Z,100.00
2022-08-11T04:24:50.494Z,100.00
2022-08-11T04:28:28.836Z,100.00
2022-08-11T04:31:49.588Z,100.00
2022-08-11T04:34:51.595Z,100.00
2022-08-11T04:38:17.337Z,100.00
2022-08-11T04:42:04.270Z,100.00
2022-08-11T04:45:47.055Z,100.00
2022-08-11T04:49:24.944Z,100.00
2022-08-11T04:53:09.775Z,100.00
2022-08-11T04:56:41.267Z,100.00
2022-08-11T05:00:07.056Z,100.00
2022-08-11T05:03:43.182Z,100.00
2022-08-11T05:07:05.295Z,100.00
2022-08-11T05:10:13.663Z,100.00
2022-08-11T05:13:18.073Z,100.00
2022-08-11T05:16:30.355Z,100.00
2022-08-11T05:19:40.502Z,100.00
2022-08-11T05:22:48.448Z,100.00
2022-08-11T05:26:44.013Z,100.00
2022-08-11T05:29:57.326Z,100.00
2022-08-11T05:33:13.816Z,100.00
2022-08-11T05:36:11.833Z,100.00
2022-08-11T05:39:36.767Z,100.00
2022-08-11T05:42:44.460Z,100.00
2022-08-11T05:46:02.593Z,100.00
2022-08-11T05:49:11.113Z,100.00
2022-08-11T05:52:21.341Z,100.00
2022-08-11T05:56:01.839Z,100.00
2022-08-11T05:58:51.637Z,100.00
2022-08-11T06:01:41.991Z,100.00
2022-08-11T06:04:31.029Z,100.00
2022-08-11T06:07:27.374Z,100.00
2022-08-11T06:10:25.419Z,100.00
2022-08-11T06:13:17.515Z,100.00
2022-08-11T06:16:07.266Z,100.00
2022-08-11T06:18:56.476Z,100.00
2022-08-11T06:21:48.398Z,100.00
2022-08-11T06:24:41.636Z,100.00
2022-08-11T06:27:34.579Z,100.00
2022-08-11T06:30:35.770Z,100.00
2022-08-11T06:33:36.105Z,100.00
2022-08-11T06:36:39.494Z,100.00
2022-08-11T06:39:29.116Z,100.00
2022-08-11T06:42:34.220Z,100.00
2022-08-11T06:45:30.890Z,100.00
2022-08-11T06:48:23.278Z,100.00
2022-08-11T06:51:12.716Z,100.00
2022-08-11T06:54:04.209Z,100.00
2022-08-11T06:57:29.345Z,100.00
2022-08-11T07:00:28.018Z,100.00
2022-08-11T07:03:19.101Z,100.00
2022-08-11T07:06:23.591Z,100.00
2022-08-11T07:10:00.190Z,100.00
2022-08-11T07:13:44.090Z,100.00
2022-08-11T07:16:26.757Z,100.00
2022-08-11T07:19:38.228Z,100.00
2022-08-11T07:22:48.035Z,100.00
2022-08-11T07:25:57.563Z,100.00
2022-08-11T07:28:58.578Z,100.00
2022-08-11T07:31:51.157Z,100.00
2022-08-11T07:34:45.706Z,100.00
2022-08-11T07:37:35.573Z,100.00
2022-08-11T07:40:24.983Z,100.00
2022-08-11T07:43:14.221Z,100.00
2022-08-11T07:46:23.774Z,100.00
2022-08-11T07:49:31.329Z,100.00
2022-08-11T07:52:29.971Z,100.00
2022-08-11T07:55:21.115Z,100.00
2022-08-11T07:58:52.192Z,100.00
2022-08-11T08:02:01.725Z,100.00
2022-08-11T08:05:09.899Z,100.00
2022-08-11T08:08:17.354Z,97.94
2022-08-11T08:11:27.582Z,96.81
2022-08-11T08:14:36.075Z,96.94
2022-08-11T08:17:43.695Z,97.66
2022-08-11T08:20:35.382Z,96.05
2022-08-11T08:23:32.900Z,91.93
2022-08-11T08:26:39.661Z,92.12
2022-08-11T08:29:49.520Z,89.85
2022-08-11T08:32:41.662Z,90.83
2022-08-11T08:35:32.896Z,91.81
2022-08-11T08:38:20.373Z,91.29
2022-08-11T08:41:09.923Z,90.51
2022-08-11T08:44:36.731Z,87.22
2022-08-11T08:47:41.775Z,87.38
2022-08-11T08:50:52.167Z,86.24
2022-08-11T08:53:49.954Z,87.69
2022-08-11T08:56:44.052Z,84.79
2022-08-11T08:59:47.541Z,82.01
2022-08-11T09:02:38.565Z,80.09
2022-08-11T09:05:26.800Z,79.27
2022-08-11T09:08:17.479Z,78.37
2022-08-11T09:11:24.570Z,76.57
2022-08-11T09:14:15.224Z,76.17
2022-08-11T09:17:03.972Z,75.01
2022-08-11T09:19:59.900Z,73.06
2022-08-11T09:26:36.269Z,73.50
2022-08-11T09:29:26.527Z,73.81
2022-08-11T09:32:15.516Z,73.18
2022-08-11T09:35:06.625Z,72.91
2022-08-11T09:38:14.080Z,72.69
2022-08-11T09:41:05.672Z,70.78
2022-08-11T09:44:12.802Z,67.77
2022-08-11T09:47:01.903Z,66.52
2022-08-11T09:49:52.701Z,64.81
2022-08-11T09:52:57.230Z,63.13
2022-08-11T09:55:53.100Z,64.99
2022-08-11T09:58:45.421Z,65.04
2022-08-11T10:01:37.198Z,65.27
2022-08-11T10:04:32.132Z,65.02
2022-08-11T10:07:21.215Z,64.15
2022-08-11T10:10:11.038Z,63.76
2022-08-11T10:13:03.965Z,62.99
2022-08-11T10:16:00.046Z,62.47
2022-08-11T10:19:06.034Z,62.46
2022-08-11T10:22:13.857Z,62.47
2022-08-11T10:25:20.854Z,62.29
2022-08-11T10:28:28.306Z,61.53
2022-08-11T10:31:47.167Z,60.38
2022-08-11T10:34:51.287Z,59.08
2022-08-11T10:38:08.655Z,59.37
2022-08-11T10:41:23.657Z,57.93
2022-08-11T10:44:13.178Z,57.37
2022-08-11T10:47:22.043Z,55.37
2022-08-11T10:50:31.928Z,57.36
2022-08-11T10:53:39.058Z,57.41
2022-08-11T10:56:47.471Z,57.20
2022-08-11T10:59:36.066Z,55.82
2022-08-11T11:02:26.654Z,55.60
2022-08-11T11:05:24.453Z,55.01
2022-08-11T11:08:30.804Z,56.88
2022-08-11T11:11:21.214Z,57.98
2022-08-11T11:14:30.353Z,58.23
2022-08-11T11:17:44.746Z,56.62
2022-08-11T11:20:46.508Z,56.22
2022-08-11T11:23:46.935Z,55.29
2022-08-11T11:26:49.835Z,54.18
2022-08-11T11:29:54.099Z,55.13
2022-08-11T11:32:56.398Z,54.55
2022-08-11T11:35:57.295Z,54.23
2022-08-11T11:38:45.725Z,53.93
2022-08-11T11:41:34.929Z,53.45
2022-08-11T11:44:24.215Z,53.04
2022-08-11T11:47:14.571Z,53.63
2022-08-11T11:50:05.294Z,52.61
2022-08-11T11:52:55.401Z,52.68
2022-08-11T11:55:44.344Z,52.13
2022-08-11T11:58:51.343Z,51.82
2022-08-11T12:01:40.043Z,51.69
2022-08-11T12:04:29.377Z,51.45
2022-08-11T12:07:36.425Z,51.11
2022-08-11T12:10:27.166Z,49.82
2022-08-11T12:13:35.605Z,49.46
2022-08-11T12:16:33.158Z,49.82
2022-08-11T12:19:28.094Z,49.63
2022-08-11T12:22:35.099Z,48.48
2022-08-11T12:25:42.027Z,48.70
2022-08-11T12:28:31.440Z,48.33
2022-08-11T12:34:24.214Z,49.03
2022-08-11T12:37:14.055Z,48.47
2022-08-11T12:40:49.582Z,48.09
2022-08-11T12:43:56.293Z,47.44
2022-08-11T12:46:48.528Z,47.36
2022-08-11T12:50:00.302Z,47.71
2022-08-11T12:52:56.501Z,47.07
2022-08-11T12:56:07.831Z,48.02
2022-08-11T12:59:17.235Z,49.39
2022-08-11T13:02:23.979Z,49.34
2022-08-11T13:05:17.683Z,47.55
2022-08-11T13:08:07.563Z,48.02
2022-08-11T13:11:16.856Z,47.44
2022-08-11T13:14:06.308Z,47.29
2022-08-11T13:17:13.416Z,46.60
2022-08-11T13:20:02.611Z,46.75
2022-08-11T13:22:52.598Z,45.41
2022-08-11T13:25:41.756Z,45.89
2022-08-11T13:28:31.792Z,45.53
2022-08-11T13:31:20.380Z,45.20
2022-08-11T13:34:09.135Z,44.96
2022-08-11T13:37:00.101Z,45.31
2022-08-11T13:39:48.917Z,44.97
2022-08-11T13:42:38.229Z,45.67
2022-08-11T13:45:27.855Z,45.10
2022-08-11T13:48:17.719Z,45.64
2022-08-11T13:51:24.538Z,44.97
2022-08-11T13:54:26.133Z,44.40
2022-08-11T13:58:08.441Z,44.19
2022-08-11T14:00:28.267Z,43.65
2022-08-11T14:03:20.943Z,43.42
2022-08-11T14:06:10.739Z,43.00
2022-08-11T14:08:59.752Z,43.07
2022-08-11T14:12:23.262Z,43.56
2022-08-11T14:15:19.342Z,43.29
2022-08-11T14:18:13.866Z,43.34
2022-08-11T14:21:24.163Z,43.54
2022-08-11T14:24:13.770Z,43.31
2022-08-11T14:27:05.120Z,43.13
2022-08-11T14:29:54.403Z,43.41
2022-08-11T14:32:52.707Z,43.24
2022-08-11T14:35:44.425Z,43.30
2022-08-11T14:38:39.510Z,43.33
2022-08-11T14:42:10.302Z,43.81
2022-08-11T14:45:16.566Z,44.15
2022-08-11T14:48:10.642Z,44.45
2022-08-11T14:51:00.348Z,44.23
2022-08-11T14:54:09.120Z,44.16
2022-08-11T14:56:59.953Z,44.42
2022-08-11T14:59:50.759Z,44.41
2022-08-11T15:02:58.502Z,44.25
2022-08-11T15:05:56.561Z,44.69
2022-08-11T15:08:55.964Z,44.16
2022-08-11T15:12:03.280Z,44.66
2022-08-11T15:15:09.845Z,44.77
2022-08-11T15:18:02.385Z,44.07
2022-08-11T15:21:09.542Z,44.35
2022-08-11T15:24:15.921Z,45.09
2022-08-11T15:27:25.329Z,44.89
2022-08-11T15:30:34.214Z,44.60
2022-08-11T15:33:44.823Z,44.53
2022-08-11T15:36:50.487Z,45.00
2022-08-11T15:40:08.067Z,45.18
2022-08-11T15:43:40.434Z,45.24
2022-08-11T15:46:33.954Z,45.09
2022-08-11T15:50:10.813Z,45.19
2022-08-11T15:52:46.743Z,45.00
2022-08-11T15:55:36.549Z,45.05
2022-08-11T15:58:45.423Z,45.46
2022-08-11T16:01:54.881Z,45.31
2022-08-11T16:04:45.647Z,45.38
2022-08-11T16:07:36.381Z,45.52
2022-08-11T16:10:29.457Z,45.44
2022-08-11T16:13:42.054Z,45.39
2022-08-11T16:16:30.665Z,45.59
2022-08-11T16:19:20.601Z,45.20
2022-08-11T16:22:11.810Z,45.27
2022-08-11T16:27:04.502Z,44.82
2022-08-11T16:28:14.675Z,45.00
2022-08-11T16:31:08.724Z,45.42
2022-08-11T16:33:57.758Z,46.05
2022-08-11T16:37:04.455Z,45.97
2022-08-11T16:39:53.335Z,46.49
2022-08-11T16:43:00.309Z,46.55
2022-08-11T16:46:31.215Z,46.67
2022-08-11T16:49:34.663Z,46.81
2022-08-11T16:52:24.132Z,46.81
2022-08-11T16:55:12.338Z,47.07
2022-08-11T16:58:39.979Z,48.36
2022-08-11T17:01:29.467Z,49.29
2022-08-11T17:04:51.921Z,50.03
2022-08-11T17:08:01.239Z,50.86
2022-08-11T17:11:11.133Z,51.98
2022-08-11T17:14:01.468Z,52.51
2022-08-11T17:16:52.541Z,53.95
2022-08-11T17:20:42.135Z,56.39
2022-08-11T17:23:14.785Z,57.90
2022-08-11T17:26:04.431Z,59.63
2022-08-11T17:28:57.725Z,60.05
2022-08-11T17:32:04.851Z,61.60
2022-08-11T17:35:15.148Z,61.29
2022-08-11T17:38:06.892Z,62.61
2022-08-11T17:41:23.206Z,63.28
2022-08-11T17:44:46.027Z,66.23
2022-08-11T17:47:53.212Z,68.50
2022-08-11T17:50:42.795Z,72.09
2022-08-11T17:54:02.131Z,73.81
2022-08-11T17:57:21.571Z,74.73
2022-08-11T18:00:12.288Z,74.96
2022-08-11T18:03:18.724Z,75.71
2022-08-11T18:06:12.732Z,76.03
2022-08-11T18:09:21.094Z,78.92
2022-08-11T18:12:29.872Z,79.88
2022-08-11T18:15:36.111Z,79.62
2022-08-11T18:18:42.317Z,81.45
2022-08-11T18:22:12.940Z,81.67
2022-08-11T18:25:19.969Z,81.72
2022-08-11T18:28:29.886Z,82.62
2022-08-11T18:31:39.382Z,83.42
2022-08-11T18:34:50.478Z,84.04
2022-08-11T18:38:01.594Z,84.33
2022-08-11T18:41:09.766Z,83.06
2022-08-11T18:44:20.547Z,82.80
2022-08-11T18:47:31.464Z,83.94
2022-08-11T18:50:40.973Z,84.37
2022-08-11T18:53:57.578Z,84.94
2022-08-11T18:57:06.386Z,83.51
2022-08-11T19:00:15.018Z,82.56
2022-08-11T19:03:25.474Z,81.11
2022-08-11T19:06:39.965Z,80.35
2022-08-11T19:09:48.632Z,79.80
2022-08-11T19:16:03.135Z,79.66
2022-08-11T19:19:14.187Z,80.55
2022-08-11T19:22:22.818Z,81.77
2022-08-11T19:25:32.182Z,82.04
2022-08-11T19:28:40.419Z,82.67
2022-08-11T19:31:48.100Z,82.83
2022-08-11T19:34:55.629Z,82.80
2022-08-11T19:38:03.573Z,82.48
2022-08-11T19:41:12.319Z,82.43
2022-08-11T19:44:22.069Z,82.64
2022-08-11T19:47:29.427Z,84.46
2022-08-11T19:50:37.960Z,85.82
2022-08-11T19:53:47.281Z,87.42
2022-08-11T19:56:55.066Z,89.26
2022-08-11T20:00:02.335Z,90.08
2022-08-11T20:03:11.029Z,90.61
2022-08-11T20:06:21.292Z,90.98
2022-08-11T20:10:04.731Z,91.53
2022-08-11T20:12:57.858Z,92.14
2022-08-11T20:16:04.999Z,93.04
2022-08-11T20:19:13.344Z,93.16
2022-08-11T20:22:20.052Z,93.51
2022-08-11T20:25:29.170Z,93.47
2022-08-11T20:28:37.945Z,94.98
2022-08-11T20:31:44.185Z,95.46
2022-08-11T20:34:54.606Z,96.35
2022-08-11T20:38:02.784Z,97.12
2022-08-11T20:41:09.779Z,97.78
2022-08-11T20:44:17.417Z,98.51
2022-08-11T20:47:26.085Z,99.12
2022-08-11T20:50:34.778Z,100.00
2022-08-11T20:53:42.793Z,100.00
2022-08-11T20:56:52.053Z,100.00
2022-08-11T20:59:59.065Z,100.00
2022-08-11T21:03:07.362Z,100.00
2022-08-11T21:06:14.055Z,100.00
2022-08-11T21:09:58.286Z,100.00
2022-08-11T21:13:26.480Z,100.00
2022-08-11T21:16:31.897Z,100.00
2022-08-11T21:20:01.445Z,100.00
2022-08-11T21:23:24.114Z,100.00
2022-08-11T21:26:34.420Z,100.00
2022-08-11T21:29:41.812Z,100.00
2022-08-11T21:32:49.705Z,100.00
2022-08-11T21:35:56.409Z,100.00
2022-08-11T21:39:02.858Z,100.00
2022-08-11T21:42:10.296Z,100.00
2022-08-11T21:45:17.473Z,100.00
2022-08-11T21:48:25.633Z,100.00
2022-08-11T21:51:32.635Z,100.00
2022-08-11T21:54:39.220Z,100.00
2022-08-11T21:57:50.003Z,100.00
2022-08-11T22:00:56.609Z,100.00
2022-08-11T22:04:04.233Z,100.00
2022-08-11T22:07:11.549Z,100.00
2022-08-11T22:10:41.631Z,100.00
2022-08-11T22:14:05.372Z,100.00
2022-08-11T22:17:10.208Z,100.00
2022-08-11T22:20:17.346Z,100.00
2022-08-11T22:23:25.113Z,100.00
2022-08-11T22:26:42.912Z,100.00
2022-08-11T22:29:53.647Z,100.00
2022-08-11T22:33:00.386Z,100.00
2022-08-11T22:36:08.199Z,100.00
2022-08-11T22:39:16.965Z,100.00
2022-08-11T22:42:33.457Z,100.00
2022-08-11T22:45:40.270Z,100.00
2022-08-11T22:48:49.111Z,100.00
2022-08-11T22:51:57.013Z,100.00
2022-08-11T22:55:05.086Z,100.00
2022-08-11T22:58:15.311Z,100.00
2022-08-11T23:01:22.121Z,100.00
2022-08-11T23:04:30.058Z,100.00
2022-08-11T23:07:49.545Z,100.00
2022-08-11T23:10:57.813Z,100.00
2022-08-11T23:14:04.516Z,100.00
2022-08-11T23:17:11.141Z,100.00
2022-08-11T23:20:33.826Z,100.00
2022-08-11T23:23:46.774Z,100.00
2022-08-11T23:26:54.519Z,100.00
2022-08-11T23:30:01.319Z,100.00
2022-08-11T23:33:12.083Z,100.00
2022-08-11T23:36:35.983Z,100.00
2022-08-11T23:39:45.501Z,100.00
2022-08-11T23:42:56.348Z,100.00
2022-08-11T23:46:03.380Z,100.00
2022-08-11T23:49:14.694Z,100.00
2022-08-11T23:52:21.757Z,100.00
2022-08-11T23:55:28.424Z,100.00
2022-08-11T23:58:34.383Z,100.00
